Time;durP1;ratioP1;P1;durP2;ratioP2;P2;SDS_P1;SDS_P2;PMS_P1;PMS_P2;Temp;Humidity;BMP_temperature;BMP_pressure;BME280_temperature;BME280_humidity;BME280_pressure;Samples;Min_cycle;Max_cycle;Signal;HPM_P1;HPM_P2
2022/01/05 00:00:16;;;;;;;8.23;2.42;;;;;;;4.36;82.93;99928.88;7389733;19;20007;-63
2022/01/05 00:02:45;;;;;;;11.05;2.75;;;;;;;4.39;81.64;99932.19;7390459;19;20006;-62
2022/01/05 00:05:15;;;;;;;11.43;2.88;;;;;;;4.38;81.19;99927.06;7388923;19;20014;-63
2022/01/05 00:07:43;;;;;;;7.85;2.55;;;;;;;4.28;79.74;99927.38;7389705;19;20006;-61
2022/01/05 00:10:13;;;;;;;10.70;2.70;;;;;;;4.25;81.37;99931.81;7388242;19;20020;-61
2022/01/05 00:12:45;;;;;;;10.73;2.67;;;;;;;4.26;80.94;99925.72;7389692;19;20029;-62
2022/01/05 00:15:13;;;;;;;13.90;3.00;;;;;;;4.20;80.35;99942.34;7390042;19;20030;-63
2022/01/05 00:17:42;;;;;;;8.73;2.58;;;;;;;4.19;81.01;99939.78;7388199;19;20022;-64
2022/01/05 00:20:13;;;;;;;12.85;3.13;;;;;;;4.24;82.48;99938.75;7389578;19;20007;-63
2022/01/05 00:22:41;;;;;;;15.27;2.55;;;;;;;4.27;80.74;99936.06;7391003;19;20011;-63
2022/01/05 00:25:12;;;;;;;10.65;2.70;;;;;;;4.25;80.83;99943.00;7389431;19;20007;-63
2022/01/05 00:27:41;;;;;;;9.10;2.55;;;;;;;4.19;79.56;99948.41;7388454;19;20023;-62
2022/01/05 00:30:13;;;;;;;10.45;2.38;;;;;;;4.20;80.97;99944.06;7388279;19;20018;-63
2022/01/05 00:32:42;;;;;;;11.05;2.78;;;;;;;4.21;80.48;99938.00;7388957;19;20015;-63
2022/01/05 00:35:11;;;;;;;13.60;2.50;;;;;;;4.13;80.85;99938.25;7388328;19;20010;-64
2022/01/05 00:37:40;;;;;;;10.80;2.60;;;;;;;4.15;81.28;99934.72;7388528;19;20022;-63
2022/01/05 00:40:10;;;;;;;12.70;3.00;;;;;;;4.20;81.39;99946.66;7387261;19;20018;-61
2022/01/05 00:42:39;;;;;;;10.88;2.80;;;;;;;4.15;81.14;99942.50;7389711;19;20026;-62
2022/01/05 00:45:09;;;;;;;12.23;3.03;;;;;;;4.21;81.10;99938.81;7387134;19;20007;-62
2022/01/05 00:47:40;;;;;;;13.38;3.13;;;;;;;4.21;80.70;99938.81;7388080;19;20021;-61
2022/01/05 00:50:10;;;;;;;13.55;2.97;;;;;;;4.18;80.66;99938.94;7386772;19;20011;-62
2022/01/05 00:52:38;;;;;;;10.85;2.55;;;;;;;4.08;79.98;99935.78;7389003;19;20118;-61
2022/01/05 00:55:08;;;;;;;12.23;2.78;;;;;;;3.88;79.95;99944.19;7387521;19;20011;-62
2022/01/05 00:57:37;;;;;;;12.93;3.47;;;;;;;3.79;80.82;99957.44;7386222;19;20625;-62
2022/01/05 01:00:08;;;;;;;9.40;3.10;;;;;;;3.78;81.67;99948.81;7387219;19;20025;-62
2022/01/05 01:02:37;;;;;;;12.43;3.55;;;;;;;3.78;81.64;99951.41;7388628;19;20309;-62
2022/01/05 01:05:09;;;;;;;10.98;3.70;;;;;;;3.77;80.87;99941.94;7388261;19;20029;-62
2022/01/05 01:07:38;;;;;;;11.25;3.78;;;;;;;3.76;81.08;99944.56;7395622;19;20081;-62
2022/01/05 01:10:08;;;;;;;14.63;3.92;;;;;;;3.77;80.85;99948.88;7393428;19;20011;-62
2022/01/05 01:12:37;;;;;;;13.68;3.60;;;;;;;3.76;80.57;99955.78;7396795;19;20658;-63
2022/01/05 01:15:07;;;;;;;12.80;3.00;;;;;;;3.70;79.50;99949.94;7394495;19;20017;-61
2022/01/05 01:17:36;;;;;;;12.85;2.97;;;;;;;3.70;80.51;99953.38;7395469;19;20026;-62
2022/01/05 01:20:09;;;;;;;10.52;2.42;;;;;;;3.71;80.35;99955.06;7394010;19;20030;-63
2022/01/05 01:22:38;;;;;;;10.98;2.53;;;;;;;3.67;78.95;99960.38;7396098;19;20490;-61
2022/01/05 01:25:08;;;;;;;13.40;3.00;;;;;;;3.67;79.21;99956.06;7394166;19;20018;-61
2022/01/05 01:27:40;;;;;;;13.73;3.47;;;;;;;3.71;79.29;99960.25;7394798;19;20003;-62
2022/01/05 01:30:10;;;;;;;16.13;3.38;;;;;;;3.71;79.01;99962.84;7395439;19;20025;-60
2022/01/05 01:32:41;;;;;;;9.95;2.50;;;;;;;3.70;78.73;99961.16;7392952;19;20040;-61
2022/01/05 01:35:12;;;;;;;13.77;3.30;;;;;;;3.61;77.86;99964.84;7392286;19;20015;-62
2022/01/05 01:37:41;;;;;;;10.50;2.35;;;;;;;3.63;78.56;99973.41;7394935;19;20014;-61
2022/01/05 01:40:11;;;;;;;10.82;2.72;;;;;;;3.67;78.91;99970.75;7392746;19;20010;-63
2022/01/05 01:42:40;;;;;;;11.43;2.83;;;;;;;3.67;78.51;99970.75;7394744;19;20356;-62
2022/01/05 01:45:10;;;;;;;10.60;2.58;;;;;;;3.65;78.51;99973.38;7393640;19;20010;-58
2022/01/05 01:47:39;;;;;;;11.52;2.70;;;;;;;3.59;77.28;99965.78;7393900;19;20764;-63
2022/01/05 01:50:12;;;;;;;9.10;2.92;;;;;;;3.59;78.54;99963.19;7395844;19;20019;-62
2022/01/05 01:52:41;;;;;;;10.85;2.50;;;;;;;3.53;78.25;99969.41;7392348;19;20013;-62
2022/01/05 01:55:13;;;;;;;10.82;2.67;;;;;;;3.54;76.76;99971.13;7393762;19;20025;-67
2022/01/05 01:57:47;;;;;;;11.85;2.72;;;;;;;3.53;76.79;99974.59;7393805;19;20022;-62
2022/01/05 02:00:17;;;;;;;13.77;2.90;;;;;;;3.55;76.74;99974.53;7392639;19;20010;-62
2022/01/05 02:02:47;;;;;;;10.80;2.92;;;;;;;3.59;77.15;99976.16;7394369;19;20014;-61
2022/01/05 02:05:18;;;;;;;12.77;3.05;;;;;;;3.62;77.93;99974.34;7393118;19;20015;-61
2022/01/05 02:07:47;;;;;;;10.43;2.60;;;;;;;3.58;77.45;99972.72;7391163;19;20010;-61
2022/01/05 02:10:16;;;;;;;9.63;2.90;;;;;;;3.56;77.74;99969.31;7392540;19;20533;-62
2022/01/05 02:12:47;;;;;;;12.48;2.97;;;;;;;3.57;78.29;99970.19;7394720;19;20356;-61
2022/01/05 02:15:15;;;;;;;15.05;3.65;;;;;;;3.52;78.07;99959.94;7395634;19;20022;-62
2022/01/05 02:17:54;;;;;;;11.80;3.15;;;;;;;3.54;78.74;99963.34;7394899;19;20025;-61
2022/01/05 02:20:27;;;;;;;11.50;2.80;;;;;;;3.53;78.94;99966.81;7394562;19;20053;-61
2022/01/05 02:22:59;;;;;;;12.02;3.28;;;;;;;3.51;78.10;99962.56;7393478;19;20015;-61
2022/01/05 02:25:29;;;;;;;10.38;3.30;;;;;;;3.47;78.22;99962.66;7391307;19;20447;-62
2022/01/05 02:27:58;;;;;;;11.45;2.95;;;;;;;3.47;78.81;99969.59;7390870;19;20018;-61
2022/01/05 02:30:30;;;;;;;14.40;3.67;;;;;;;3.43;78.32;99968.81;7393113;19;20022;-61
2022/01/05 02:33:00;;;;;;;14.15;3.38;;;;;;;3.45;79.39;99973.94;7391394;19;20033;-62
2022/01/05 02:35:28;;;;;;;12.82;2.97;;;;;;;3.49;77.86;99977.31;7391744;19;20026;-62
2022/01/05 02:38:00;;;;;;;16.90;3.88;;;;;;;3.46;78.12;99976.50;7392204;19;20022;-62
2022/01/05 02:40:29;;;;;;;11.70;3.70;;;;;;;3.46;78.48;99975.66;7391389;19;20011;-62
2022/01/05 02:42:59;;;;;;;17.50;3.70;;;;;;;3.43;77.66;99967.97;7392828;19;20344;-62
2022/01/05 02:45:28;;;;;;;15.43;3.05;;;;;;;3.36;77.45;99966.47;7388979;19;20015;-64
2022/01/05 02:47:57;;;;;;;13.50;3.05;;;;;;;3.33;77.31;99971.72;7395544;19;20024;-65
2022/01/05 02:50:26;;;;;;;13.77;3.20;;;;;;;3.26;76.93;99971.03;7390736;19;20015;-64
2022/01/05 02:52:55;;;;;;;13.38;3.17;;;;;;;3.25;77.50;99967.63;7389101;19;20037;-65
2022/01/05 02:55:27;;;;;;;8.73;2.72;;;;;;;3.25;77.13;99977.97;7389952;19;20099;-65
2022/01/05 02:57:56;;;;;;;14.82;3.15;;;;;;;3.26;77.16;99973.63;7389812;19;20031;-65
2022/01/05 03:00:25;;;;;;;13.38;3.28;;;;;;;3.25;76.59;99980.56;7389601;19;20114;-64
2022/01/05 03:02:54;;;;;;;15.50;2.90;;;;;;;3.22;75.99;99978.03;7390283;19;20458;-63
2022/01/05 03:05:23;;;;;;;11.63;2.97;;;;;;;3.19;76.22;99975.53;7389942;19;20018;-63
2022/01/05 03:07:52;;;;;;;15.75;3.88;;;;;;;3.20;76.63;99977.25;7390441;19;20078;-63
2022/01/05 03:10:21;;;;;;;14.15;2.78;;;;;;;3.24;76.93;99970.25;7388885;19;20010;-63
2022/01/05 03:12:53;;;;;;;13.30;3.00;;;;;;;3.27;75.77;99968.41;7391125;19;20475;-65
2022/01/05 03:15:21;;;;;;;12.75;3.22;;;;;;;3.29;76.20;99977.00;7390637;19;20019;-64
2022/01/05 03:17:50;;;;;;;13.25;3.30;;;;;;;3.25;75.44;99977.97;7389976;19;20014;-63
2022/01/05 03:20:20;;;;;;;13.20;3.33;;;;;;;3.26;75.45;99982.25;7389659;19;20015;-64
2022/01/05 03:22:49;;;;;;;11.65;2.47;;;;;;;3.27;74.64;99983.94;7390537;19;20101;-63
2022/01/05 03:25:19;;;;;;;13.70;3.42;;;;;;;3.26;74.38;99990.00;7390042;19;20010;-63
2022/01/05 03:27:52;;;;;;;12.00;2.67;;;;;;;3.25;74.22;99987.47;7387986;19;20490;-62
2022/01/05 03:30:25;;;;;;;12.90;3.22;;;;;;;3.28;74.55;99995.13;7390252;19;20022;-64
2022/01/05 03:35:44;;;;;;;11.90;2.58;;;;;;;3.23;74.45;100004.78;7387530;19;20019;-63
2022/01/05 03:38:13;;;;;;;11.00;2.53;;;;;;;3.18;74.66;100002.34;7389273;19;20046;-64
2022/01/05 03:40:42;;;;;;;13.00;3.20;;;;;;;3.20;74.92;100010.06;7388227;19;20503;-64
2022/01/05 03:43:13;;;;;;;14.23;3.03;;;;;;;3.20;74.73;100008.31;7389044;19;20018;-63
2022/01/05 03:45:43;;;;;;;9.80;2.90;;;;;;;3.22;75.21;99996.16;7386973;19;20010;-62
2022/01/05 03:48:14;;;;;;;16.25;3.42;;;;;;;3.24;74.63;99994.38;7389165;19;20010;-62
2022/01/05 03:50:43;;;;;;;13.07;3.35;;;;;;;3.25;74.61;99997.81;7392951;19;20496;-64
2022/01/05 03:53:12;;;;;;;13.35;3.25;;;;;;;3.24;74.98;100003.91;7388194;19;20117;-64
2022/01/05 03:55:43;;;;;;;13.15;3.17;;;;;;;3.23;75.71;100000.44;7387620;19;20018;-64
2022/01/05 03:58:15;;;;;;;16.63;3.08;;;;;;;3.24;75.77;100009.09;7389049;19;20016;-63
2022/01/05 04:00:46;;;;;;;15.45;3.70;;;;;;;3.21;74.88;100001.38;7387739;19;20079;-64
2022/01/05 04:03:15;;;;;;;10.02;3.00;;;;;;;3.18;75.94;100009.22;7389091;19;20022;-64
2022/01/05 04:05:44;;;;;;;13.82;3.25;;;;;;;3.23;75.59;100012.56;7387843;19;20019;-63
2022/01/05 04:08:13;;;;;;;18.83;3.05;;;;;;;3.24;75.68;100007.34;7388656;19;20037;-64
2022/01/05 04:10:42;;;;;;;12.07;2.72;;;;;;;3.21;75.12;100006.56;7388414;19;20024;-62
2022/01/05 04:13:11;;;;;;;12.73;2.80;;;;;;;3.15;75.30;100006.72;7388777;19;20032;-63
2022/01/05 04:15:43;;;;;;;14.55;3.10;;;;;;;3.13;75.31;100014.53;7388022;19;20016;-63
2022/01/05 04:18:12;;;;;;;16.40;3.33;;;;;;;3.14;75.33;100012.78;7389058;19;20018;-63
2022/01/05 04:20:40;;;;;;;16.55;3.75;;;;;;;3.11;75.47;100022.34;7387949;19;20015;-63
2022/01/05 04:23:10;;;;;;;17.30;3.25;;;;;;;3.13;75.54;100013.69;7388577;19;20018;-62
2022/01/05 04:25:39;;;;;;;13.43;3.30;;;;;;;3.16;75.87;100008.44;7388326;19;20068;-63
2022/01/05 04:28:08;;;;;;;16.30;3.13;;;;;;;3.16;75.29;100011.03;7388170;19;20014;-63
2022/01/05 04:30:37;;;;;;;17.30;3.50;;;;;;;3.15;74.97;100004.97;7386871;19;20078;-63
2022/01/05 04:33:08;;;;;;;16.38;2.97;;;;;;;3.11;75.63;100006.81;7388754;19;20007;-63
2022/01/05 04:35:37;;;;;;;16.55;3.35;;;;;;;3.05;75.59;100011.28;7387259;19;20019;-63
2022/01/05 04:38:06;;;;;;;12.68;3.03;;;;;;;3.04;75.89;100023.41;7387786;19;20041;-63
2022/01/05 04:40:35;;;;;;;13.90;3.22;;;;;;;3.01;76.72;100015.72;7389810;19;20006;-63
2022/01/05 04:43:04;;;;;;;14.48;3.45;;;;;;;3.04;76.39;100019.97;7396071;19;20017;-63
2022/01/05 04:45:33;;;;;;;12.50;2.88;;;;;;;3.08;76.88;100027.59;7394567;19;20098;-63
2022/01/05 04:48:03;;;;;;;22.13;11.57;;;;;;;3.13;76.94;100019.72;7395220;19;20015;-63
2022/01/05 04:50:35;;;;;;;12.93;2.72;;;;;;;3.15;76.66;100024.84;7396088;19;20043;-64
2022/01/05 04:53:04;;;;;;;19.20;3.90;;;;;;;3.11;76.59;100032.69;7395135;19;20099;-64
2022/01/05 04:55:33;;;;;;;17.75;3.35;;;;;;;3.13;77.17;100031.81;7394194;19;20018;-64
2022/01/05 04:58:02;;;;;;;14.40;3.38;;;;;;;3.08;77.33;100030.19;7393617;19;20189;-64
2022/01/05 05:00:31;;;;;;;16.50;3.30;;;;;;;3.09;77.22;100031.88;7393593;19;20014;-63
2022/01/05 05:03:00;;;;;;;13.13;2.85;;;;;;;3.11;77.70;100024.94;7395218;19;20048;-63
2022/01/05 05:05:29;;;;;;;12.57;3.45;;;;;;;3.14;77.75;100030.91;7393208;19;20070;-63
2022/01/05 05:08:01;;;;;;;14.48;3.28;;;;;;;3.14;77.37;100028.31;7394068;19;20033;-63
2022/01/05 05:10:30;;;;;;;16.73;3.22;;;;;;;3.08;77.05;100027.59;7394882;19;20018;-64
2022/01/05 05:12:59;;;;;;;14.52;3.30;;;;;;;3.07;77.31;100028.50;7394725;19;20020;-65
2022/01/05 05:15:28;;;;;;;16.85;3.30;;;;;;;3.09;78.03;100036.22;7393549;19;20487;-63
2022/01/05 05:17:56;;;;;;;13.85;3.53;;;;;;;3.11;77.53;100037.03;7393950;19;20006;-63
2022/01/05 05:20:25;;;;;;;17.92;3.55;;;;;;;3.10;77.63;100038.75;7394245;19;20026;-63
2022/01/05 05:22:54;;;;;;;16.00;3.47;;;;;;;3.11;77.86;100034.44;7391662;19;20444;-63
2022/01/05 05:25:25;;;;;;;13.32;3.15;;;;;;;3.16;77.76;100042.09;7391044;19;20352;-64
2022/01/05 05:27:54;;;;;;;13.02;3.33;;;;;;;3.16;77.80;100036.91;7392328;19;20025;-63
2022/01/05 05:30:23;;;;;;;17.27;3.58;;;;;;;3.21;78.01;100041.06;7394756;19;20106;-63
2022/01/05 05:32:54;;;;;;;16.33;3.35;;;;;;;3.28;78.06;100046.91;7394135;19;20014;-65
2022/01/05 05:35:23;;;;;;;15.10;3.42;;;;;;;3.28;78.06;100039.16;7393925;19;20014;-61
2022/01/05 05:37:52;;;;;;;18.00;3.55;;;;;;;3.32;78.11;100042.53;7393768;19;20010;-63
2022/01/05 05:40:21;;;;;;;18.00;3.08;;;;;;;3.32;77.96;100052.88;7393647;19;20018;-64
2022/01/05 05:42:53;;;;;;;22.35;4.07;;;;;;;3.32;78.08;100045.94;7394243;19;20011;-64
2022/01/05 05:45:22;;;;;;;17.40;4.20;;;;;;;3.33;78.31;100050.25;7393126;19;20121;-63
2022/01/05 05:47:50;;;;;;;17.52;3.50;;;;;;;3.34;78.47;100054.53;7392382;19;20010;-64
2022/01/05 05:50:19;;;;;;;20.30;3.88;;;;;;;3.32;78.42;100056.31;7393299;19;20010;-64
2022/01/05 05:52:48;;;;;;;18.23;3.90;;;;;;;3.40;79.25;100056.97;7393151;19;20562;-64
2022/01/05 05:55:17;;;;;;;19.25;3.92;;;;;;;3.42;79.02;100051.75;7392806;19;20028;-64
2022/01/05 05:57:46;;;;;;;15.40;3.65;;;;;;;3.46;78.59;100050.75;7392509;19;20007;-62
2022/01/05 06:00:18;;;;;;;16.92;3.95;;;;;;;3.46;78.83;100049.00;7392882;19;20018;-63
2022/01/05 06:02:47;;;;;;;19.38;4.10;;;;;;;3.46;78.99;100043.00;7393507;19;20025;-64
2022/01/05 06:05:16;;;;;;;17.48;3.38;;;;;;;3.44;79.13;100043.03;7392312;19;20016;-63
2022/01/05 06:07:45;;;;;;;17.98;3.67;;;;;;;3.45;79.16;100042.16;7392426;19;20020;-62
2022/01/05 06:10:14;;;;;;;19.15;3.85;;;;;;;3.42;79.48;100038.78;7392981;19;20487;-62
2022/01/05 06:12:43;;;;;;;20.13;3.92;;;;;;;3.43;80.12;100040.50;7393251;19;20017;-64
2022/01/05 06:15:12;;;;;;;15.75;3.88;;;;;;;3.46;79.94;100043.84;7391708;19;20018;-63
2022/01/05 06:17:44;;;;;;;20.73;4.00;;;;;;;3.47;79.75;100039.53;7389637;19;20022;-64
2022/01/05 06:20:15;;;;;;;19.48;4.30;;;;;;;3.54;79.79;100043.63;7392980;19;20018;-64
2022/01/05 06:22:44;;;;;;;21.02;4.20;;;;;;;3.55;79.48;100039.31;7393258;19;20480;-64
2022/01/05 06:25:14;;;;;;;19.65;4.05;;;;;;;3.58;79.17;100034.91;7392439;19;20459;-64
2022/01/05 06:27:44;;;;;;;14.52;3.63;;;;;;;3.60;78.90;100038.28;7392402;19;20317;-64
2022/01/05 06:30:13;;;;;;;21.15;4.15;;;;;;;3.69;79.12;100038.91;7393380;19;20033;-64
2022/01/05 06:32:49;;;;;;;18.92;4.40;;;;;;;3.76;78.60;100037.84;7392562;19;20038;-63
2022/01/05 06:35:23;;;;;;;16.90;4.07;;;;;;;3.82;78.57;100040.25;7391311;19;20493;-64
2022/01/05 06:37:53;;;;;;;13.35;3.72;;;;;;;3.84;78.55;100056.63;7391617;19;20026;-64
2022/01/05 06:40:22;;;;;;;16.92;4.45;;;;;;;3.86;78.58;100053.97;7392041;19;20025;-63
2022/01/05 06:42:50;;;;;;;18.40;3.65;;;;;;;3.84;78.29;100053.16;7391816;19;20134;-63
2022/01/05 06:45:19;;;;;;;21.20;4.18;;;;;;;3.79;78.76;100048.97;7391619;19;20017;-63
2022/01/05 06:47:51;;;;;;;21.80;3.83;;;;;;;3.80;78.31;100053.25;7390167;19;20497;-62
2022/01/05 06:50:20;;;;;;;14.25;3.72;;;;;;;3.81;78.26;100054.09;7393042;19;20115;-63
2022/01/05 06:52:49;;;;;;;14.35;3.78;;;;;;;3.78;78.61;100061.97;7392675;19;20491;-63
2022/01/05 06:55:18;;;;;;;16.73;4.03;;;;;;;3.80;78.46;100073.16;7390813;19;20017;-64
2022/01/05 06:57:47;;;;;;;15.93;3.65;;;;;;;3.89;78.13;100072.88;7391800;19;20360;-63
2022/01/05 07:00:18;;;;;;;16.27;3.75;;;;;;;3.93;77.84;100074.50;7391545;19;20103;-64
2022/01/05 07:02:47;;;;;;;18.55;3.70;;;;;;;3.92;77.89;100074.53;7388261;19;20011;-64
2022/01/05 07:05:18;;;;;;;13.55;3.45;;;;;;;3.88;78.25;100078.09;7390895;19;20475;-64
2022/01/05 07:07:47;;;;;;;18.83;4.32;;;;;;;3.86;79.19;100085.94;7391294;19;20030;-64
2022/01/05 07:10:17;;;;;;;16.45;3.85;;;;;;;3.77;80.26;100087.03;7392227;19;20133;-64
2022/01/05 07:12:46;;;;;;;19.05;3.67;;;;;;;3.77;80.12;100081.84;7392137;19;20018;-64
2022/01/05 07:15:15;;;;;;;16.40;4.20;;;;;;;3.71;80.55;100089.81;7391206;19;20378;-64
2022/01/05 07:17:44;;;;;;;12.98;3.65;;;;;;;3.74;80.39;100088.84;7390729;19;20500;-64
2022/01/05 07:20:13;;;;;;;14.73;3.70;;;;;;;3.77;80.89;100088.78;7392044;19;20021;-64
2022/01/05 07:22:45;;;;;;;14.77;4.03;;;;;;;3.77;79.85;100089.63;7389971;19;20039;-64
2022/01/05 07:25:14;;;;;;;17.58;4.03;;;;;;;3.81;79.88;100090.38;7390343;19;20032;-63
2022/01/05 07:27:43;;;;;;;20.02;3.47;;;;;;;3.87;79.29;100077.25;7390932;19;20025;-64
2022/01/05 07:30:13;;;;;;;17.73;3.95;;;;;;;3.92;79.23;100083.16;7391482;19;20038;-64
2022/01/05 07:32:42;;;;;;;19.05;4.00;;;;;;;3.94;78.48;100089.16;7391366;19;20010;-64
2022/01/05 07:35:12;;;;;;;18.35;3.55;;;;;;;3.98;78.66;100080.41;7390541;19;20381;-64
2022/01/05 07:37:41;;;;;;;19.13;4.45;;;;;;;4.05;78.07;100094.00;7391189;19;20022;-63
2022/01/05 07:40:14;;;;;;;14.52;3.63;;;;;;;4.08;78.23;100096.50;7391203;19;20466;-64
2022/01/05 07:42:43;;;;;;;16.10;3.55;;;;;;;4.11;78.60;100100.75;7388430;19;20021;-64
2022/01/05 07:45:13;;;;;;;15.43;3.60;;;;;;;4.19;77.92;100100.56;7388682;19;20021;-64
2022/01/05 07:47:42;;;;;;;14.35;3.42;;;;;;;4.19;78.13;100096.22;7390529;19;20037;-64
2022/01/05 07:50:14;;;;;;;13.85;3.75;;;;;;;4.20;78.00;100105.69;7391024;19;20014;-65
2022/01/05 07:52:44;;;;;;;16.92;3.80;;;;;;;4.21;78.56;100102.19;7390845;19;20022;-64
2022/01/05 07:55:16;;;;;;;22.45;4.38;;;;;;;4.24;78.39;100096.06;7391017;19;20018;-64
2022/01/05 07:57:45;;;;;;;18.73;4.07;;;;;;;4.23;78.45;100104.75;7390358;19;20502;-63
2022/01/05 08:00:17;;;;;;;20.65;4.05;;;;;;;4.18;78.60;100104.88;7391051;19;20018;-64
2022/01/05 08:02:46;;;;;;;;;;;;;;;4.18;79.31;100094.50;7390005;19;20086;-64
2022/01/05 08:05:14;;;;;;;15.27;4.05;;;;;;;4.21;78.96;100109.97;7390197;19;19947;-63
2022/01/05 08:07:45;;;;;;;18.70;3.50;;;;;;;4.27;78.65;100108.94;7389369;19;20011;-64
2022/01/05 08:10:16;;;;;;;19.90;4.65;;;;;;;4.27;79.32;100115.00;7390599;19;20337;-64
2022/01/05 08:12:45;;;;;;;17.50;4.35;;;;;;;4.31;79.31;100115.72;7390904;19;20024;-63
2022/01/05 08:15:15;;;;;;;20.80;3.83;;;;;;;4.28;79.60;100118.41;7389323;19;20030;-63
2022/01/05 08:17:44;;;;;;;21.15;4.57;;;;;;;4.17;81.20;100110.97;7389768;19;20011;-64
2022/01/05 08:20:14;;;;;;;18.13;4.35;;;;;;;4.14;81.92;100114.50;7390787;19;20324;-64
2022/01/05 08:22:44;;;;;;;20.00;4.10;;;;;;;4.09;83.48;100121.56;7387854;19;20021;-64
2022/01/05 08:25:18;;;;;;;24.42;5.10;;;;;;;4.00;83.72;100121.81;7389325;19;20125;-63
2022/01/05 08:27:48;;;;;;;18.17;4.45;;;;;;;3.88;85.52;100120.41;7390190;19;20014;-63
2022/01/05 08:30:18;;;;;;;24.80;5.05;;;;;;;3.76;86.67;100108.66;7391609;19;20400;-64
2022/01/05 08:32:49;;;;;;;25.88;5.00;;;;;;;3.73;87.62;100118.25;7390892;19;20019;-64
2022/01/05 08:35:19;;;;;;;21.17;4.95;;;;;;;3.73;87.68;100115.66;7389819;19;20025;-65
2022/01/05 08:37:48;;;;;;;25.17;4.75;;;;;;;3.72;88.02;100121.75;7389864;19;20451;-64
2022/01/05 08:40:22;;;;;;;20.52;5.05;;;;;;;3.72;88.61;100132.94;7390431;19;20778;-64
2022/01/05 08:42:52;;;;;;;23.58;4.55;;;;;;;3.67;89.30;100133.97;7390643;19;20204;-64
2022/01/05 08:45:21;;;;;;;28.88;5.20;;;;;;;3.66;89.57;100127.09;7391029;19;20017;-65
2022/01/05 08:47:52;;;;;;;21.58;5.03;;;;;;;3.66;89.79;100140.88;7390678;19;20541;-65
2022/01/05 08:50:23;;;;;;;18.92;5.13;;;;;;;3.67;90.88;100137.41;7392722;19;20121;-65
2022/01/05 08:52:53;;;;;;;20.40;4.93;;;;;;;3.71;90.64;100141.63;7394684;19;20044;-65
2022/01/05 08:55:27;;;;;;;17.45;5.20;;;;;;;3.72;90.75;100143.31;7395131;19;20114;-64
2022/01/05 08:57:57;;;;;;;23.42;5.40;;;;;;;3.69;90.58;100152.91;7388882;19;20014;-66
2022/01/05 09:00:26;;;;;;;26.25;5.03;;;;;;;3.61;91.13;100138.44;7391900;19;20084;-65
2022/01/05 09:02:56;;;;;;;27.05;5.47;;;;;;;3.58;91.55;100148.88;7389521;19;20495;-65
2022/01/05 09:05:25;;;;;;;27.50;5.70;;;;;;;3.55;91.99;100145.50;7390663;19;20021;-66
2022/01/05 09:07:54;;;;;;;20.35;5.10;;;;;;;3.53;92.22;100150.72;7390325;19;20037;-64
2022/01/05 09:10:25;;;;;;;20.92;4.60;;;;;;;3.49;92.21;100146.50;7391068;19;20074;-66
2022/01/05 09:12:56;;;;;;;25.75;5.63;;;;;;;3.47;92.80;100153.47;7391764;19;20026;-65
2022/01/05 09:15:25;;;;;;;26.88;5.70;;;;;;;3.48;93.31;100144.81;7391791;19;20029;-68
2022/01/05 09:17:55;;;;;;;20.13;4.80;;;;;;;3.45;93.57;100148.34;7393060;19;20014;-64
2022/01/05 09:20:24;;;;;;;24.77;6.30;;;;;;;3.46;93.88;100159.53;7392214;19;20343;-65
2022/01/05 09:22:53;;;;;;;27.77;5.63;;;;;;;3.49;94.68;100145.66;7389794;19;20037;-65
2022/01/05 09:25:25;;;;;;;17.02;5.10;;;;;;;3.53;94.51;100157.66;7390490;19;20352;-63
2022/01/05 09:27:54;;;;;;;25.13;5.85;;;;;;;3.50;94.47;100160.34;7396693;19;20094;-64
2022/01/05 09:30:23;;;;;;;23.55;4.95;;;;;;;3.47;94.40;100156.91;7396740;19;20407;-66
2022/01/05 09:32:52;;;;;;;28.17;5.55;;;;;;;3.50;94.77;100163.75;7397444;19;20025;-65
2022/01/05 09:35:23;;;;;;;23.45;5.55;;;;;;;3.55;95.30;100184.34;7396941;19;20025;-66
2022/01/05 09:37:56;;;;;;;19.08;4.93;;;;;;;3.61;95.57;100194.56;7396752;19;20007;-64
2022/01/05 09:43:10;;;;;;;22.73;4.97;;;;;;;3.68;96.06;100170.19;7395419;19;20130;-62
2022/01/05 09:45:45;;;;;;;23.13;4.95;;;;;;;3.68;95.75;100190.06;7396181;19;20456;-64
2022/01/05 09:48:26;;;;;;;28.23;5.82;;;;;;;3.68;96.00;100190.06;7396599;19;20014;-66
2022/01/05 09:51:00;;;;;;;20.20;4.68;;;;;;;3.75;96.04;100200.22;7395668;19;20010;-65
2022/01/05 09:53:33;;;;;;;21.25;5.32;;;;;;;3.74;96.43;100205.44;7395595;19;20006;-66
2022/01/05 09:56:05;;;;;;;21.15;5.03;;;;;;;3.77;97.15;100208.81;7393453;19;20029;-64
2022/01/05 09:58:36;;;;;;;20.00;4.20;;;;;;;3.76;96.83;100206.28;7394768;19;20022;-66
2022/01/05 10:01:05;;;;;;;21.67;4.95;;;;;;;3.78;97.00;100207.06;7394733;19;20010;-65
2022/01/05 10:03:34;;;;;;;18.75;4.90;;;;;;;3.80;97.60;100206.16;7393143;19;20018;-65
2022/01/05 10:06:03;;;;;;;25.60;4.50;;;;;;;3.80;97.21;100188.00;7392784;19;20018;-66
2022/01/05 10:08:32;;;;;;;21.35;5.18;;;;;;;3.80;97.43;100200.13;7393007;19;20034;-64
2022/01/05 10:11:03;;;;;;;27.38;5.82;;;;;;;3.79;97.46;100201.84;7394244;19;20024;-66
2022/01/05 10:13:32;;;;;;;28.40;5.63;;;;;;;3.81;97.76;100199.22;7394942;19;20534;-66
2022/01/05 10:16:01;;;;;;;21.48;5.72;;;;;;;3.86;97.83;100225.88;7392509;19;20078;-65
2022/01/05 10:18:41;;;;;;;23.10;6.00;;;;;;;3.90;98.18;100211.09;7394803;19;20021;-65
2022/01/05 10:21:12;;;;;;;28.60;5.65;;;;;;;3.92;98.41;100219.69;7394646;19;20103;-65
2022/01/05 10:23:44;;;;;;;23.90;5.32;;;;;;;3.96;98.25;100210.94;7392300;19;20010;-67
2022/01/05 10:26:27;;;;;;;27.75;6.20;;;;;;;3.94;98.30;100208.38;7392217;19;20041;-67
2022/01/05 10:28:56;;;;;;;;;;;;;;;3.98;98.30;100216.91;7395979;19;20048;-65
2022/01/05 10:31:27;;;;;;;28.08;6.85;;;;;;;4.02;98.80;100215.09;7394064;19;19919;-65
2022/01/05 10:33:57;;;;;;;24.50;5.65;;;;;;;4.10;98.97;100206.22;7393787;19;20074;-66
2022/01/05 10:36:26;;;;;;;22.48;5.50;;;;;;;4.11;99.09;100213.13;7390969;19;20019;-65
2022/01/05 10:38:57;;;;;;;28.13;6.03;;;;;;;4.19;99.18;100230.19;7390946;19;20613;-65
2022/01/05 10:41:31;;;;;;;27.70;5.70;;;;;;;4.19;98.66;100246.59;7394042;19;20011;-65
2022/01/05 10:44:19;;;;;;;28.05;6.18;;;;;;;4.19;98.71;100246.59;7392380;19;20426;-66
2022/01/05 10:46:51;;;;;;;26.73;6.13;;;;;;;4.21;98.32;100246.56;7391038;19;20052;-65
2022/01/05 10:49:32;;;;;;;32.03;6.68;;;;;;;4.23;98.52;100260.34;7394784;19;20527;-64
2022/01/05 10:52:03;;;;;;;32.42;7.05;;;;;;;4.25;98.88;100261.97;7394437;19;20015;-65
2022/01/05 10:54:33;;;;;;;29.88;5.60;;;;;;;4.29;99.20;100265.38;7394269;19;20722;-66
2022/01/05 10:57:14;;;;;;;30.20;6.10;;;;;;;4.33;99.24;100246.22;7395977;19;20332;-66
2022/01/05 10:59:45;;;;;;;27.63;6.07;;;;;;;4.36;99.29;100243.56;7393906;19;20021;-66
2022/01/05 11:02:25;;;;;;;30.50;6.18;;;;;;;4.40;99.34;100254.66;7392817;19;20021;-67
2022/01/05 11:04:58;;;;;;;27.35;5.35;;;;;;;4.46;99.45;100255.38;7392199;19;20044;-66
2022/01/05 11:07:31;;;;;;;;;;;;;;;4.46;99.26;100265.75;7392776;19;20074;-65
2022/01/05 11:10:02;;;;;;;34.05;5.90;;;;;;;4.51;99.43;100270.78;7393794;19;20336;-65
2022/01/05 11:12:40;;;;;;;28.27;5.28;;;;;;;4.58;99.55;100276.66;7395086;19;20082;-65
2022/01/05 11:15:23;;;;;;;32.30;6.60;;;;;;;4.60;99.56;100300.81;7394212;19;20014;-65
2022/01/05 11:18:18;;;;;;;29.65;6.20;;;;;;;4.65;99.57;100302.38;7392452;19;20570;-66
2022/01/05 11:20:52;;;;;;;28.83;5.50;;;;;;;4.68;99.35;100317.03;7394944;19;20348;-65
2022/01/05 11:23:23;;;;;;;27.50;5.00;;;;;;;4.68;99.03;100317.91;7392480;19;20034;-65
2022/01/05 11:25:54;;;;;;;22.27;4.43;;;;;;;4.65;98.85;100317.13;7390724;19;20010;-65
2022/01/05 11:28:27;;;;;;;24.92;5.45;;;;;;;4.64;98.83;100305.91;7392758;19;20054;-65
2022/01/05 11:30:58;;;;;;;24.80;4.75;;;;;;;4.68;99.22;100306.66;7392335;19;20444;-65
2022/01/05 11:33:28;;;;;;;19.75;3.88;;;;;;;4.70;99.31;100320.44;7392079;19;20089;-65
2022/01/05 11:35:58;;;;;;;22.00;4.55;;;;;;;4.71;99.07;100318.69;7390011;19;20015;-65
2022/01/05 11:38:27;;;;;;;25.23;5.18;;;;;;;4.70;98.87;100329.97;7392987;19;20023;-65
2022/01/05 11:40:57;;;;;;;18.00;3.45;;;;;;;4.72;99.20;100320.41;7392577;19;20031;-65
2022/01/05 11:43:35;;;;;;;19.60;3.90;;;;;;;4.77;99.60;100347.94;7390950;19;20050;-66
2022/01/05 11:46:16;;;;;;;21.70;4.28;;;;;;;4.79;99.86;100358.28;7389724;19;20014;-65
2022/01/05 11:49:00;;;;;;;16.02;3.53;;;;;;;4.79;99.23;100350.47;7390134;19;20025;-65